Back to Top

Language: 

Current Local METAR Station Weather Reports...

Local METAR Reports

Local METAR Reports

 

EGCN - Doncaster Sheffield Airport, United Kingdom
Distance from station: E 20mi, 32km
Updated: Thu, 01-Jan-1970 1:00am BST
NOT Current
unable to load EGCN data RC=
unable to load EGCN data RC=
 
EGNM - Leeds Bradford International, United Kingdom
Distance from station: NNW 24mi, 39km
Updated: Wed, 25-Apr-2018 9:20pm BST
Few Clouds
Few Clouds
 Wind from W
Wind: W 15 mph , 24 km/h, Gust: 28 mph , 44 km/h
Temperature: 8°C
Wind Chill: 4°C
Dew Point: 4°C
Humidity: 76%
Barometer: 1007 hPa
Clouds: Few Clouds
Visibility: 6 miles , 10 km
Cloud details: Few Clouds 488 m
Few Clouds 640 m
2018/04/25 20:20 EGNM 252020Z 26013G24KT 230V290 9999 FEW016 FEW021CB 08/04 Q1007
 
EGCC - Manchester International, United Kingdom
Distance from station: WSW 35mi, 56km
Updated: Wed, 25-Apr-2018 9:20pm BST
Partly Cloudy
Partly Cloudy
 Wind from SW
Wind: SW 7 mph , 11 km/h
Temperature: 8°C
Wind Chill: 6°C
Dew Point: 4°C
Humidity: 76%
Barometer: 1010 hPa
Clouds: Partly Cloudy
Visibility: 6 miles , 10 km
Cloud details: Partly Cloudy 1463 m
2018/04/25 20:20 EGCC 252020Z AUTO 22006KT 9999 SCT048 08/04 Q1010
EGXU - Linton-On-Ouse RAF, United Kingdom
Distance from station: NNE 37mi, 60km
Updated: Wed, 25-Apr-2018 8:50pm BST
Few Clouds
Few Clouds
 Wind from W
Wind: W 10 mph , 17 km/h
Temperature: 9°C
Wind Chill: 7°C
Dew Point: 3°C
Humidity: 66%
Barometer: 1007 hPa
Clouds: Few Clouds
Visibility: 6 miles , 10 km
Cloud details: Few Clouds 914 m
2018/04/25 19:50 EGXU 251950Z 27009KT 9999 FEW030 09/03 Q1007 BLU NOSIG
 
EGXP - Scampton RAF, United Kingdom
Distance from station: ESE 41mi, 66km
Updated: Wed, 25-Apr-2018 8:50pm BST
Mostly Cloudy
Mostly Cloudy
 Wind from W
Wind: W 15 mph , 24 km/h, Gust: 33 mph , 54 km/h
Temperature: 8°C
Wind Chill: 4°C
Dew Point: 6°C
Humidity: 87%
Barometer: 1009 hPa
Clouds: Mostly Cloudy
Visibility: 6 miles , 10 km
Cloud details: Few Clouds 762 m
Mostly Cloudy 1158 m
2018/04/25 19:50 EGXP 251950Z AUTO 27013G29KT 9999 // FEW025/// BKN038/// 08/06 Q1009
EGNJ - Humberside Airport, United Kingdom
Distance from station: E 46mi, 74km
Updated: Wed, 25-Apr-2018 9:20pm BST
Partly Cloudy
Partly Cloudy
 Wind from SW
Wind: SW 15 mph , 24 km/h
Temperature: 10°C
Wind Chill: 7°C
Dew Point: 5°C
Humidity: 71%
Barometer: 1008 hPa
Clouds: Partly Cloudy
Visibility: 6 miles , 10 km
Cloud details: Partly Cloudy 1067 m
2018/04/25 20:20 EGNJ 252020Z 23013KT 9999 SCT035CB 10/05 Q1008
 
EGXW - Waddington RAF, United Kingdom
Distance from station: ESE 46mi, 74km
Updated: Wed, 25-Apr-2018 8:50pm BST
Few Clouds
Few Clouds
 Wind from WSW
Wind: WSW 9 mph , 15 km/h
Temperature: 8°C
Wind Chill: 5°C
Dew Point: 5°C
Humidity: 82%
Barometer: 1009 hPa
Clouds: Few Clouds
Visibility: 6 miles , 10 km
Cloud details: Few Clouds 671 m
2018/04/25 19:50 EGXW 251950Z 25008KT 9999 FEW022 08/05 Q1009 BLU
EGXZ - Topcliffe RAF, United Kingdom
Distance from station: N 46mi, 75km
Updated: Wed, 25-Apr-2018 8:50pm BST
Clear
Clear
 Wind from WSW
Wind: WSW 12 mph , 19 km/h
Temperature: 9°C
Wind Chill: 6°C
Dew Point: 4°C
Humidity: 71%
Barometer: 1007 hPa
Summary: Clear
Visibility: greater than 7 miles , 10 km
2018/04/25 19:50 EGXZ 251950Z 25010KT CAVOK 09/04 Q1007 BLU
 
EGXV - Leconfield, United Kingdom
Distance from station: ENE 48mi, 77km
Updated: Wed, 25-Apr-2018 8:50pm BST
Few Clouds
Few Clouds
 Wind from WSW
Wind: WSW 6 mph , 9 km/h
Temperature: 9°C
Wind Chill: 7°C
Dew Point: 5°C
Humidity: 76%
Barometer: 1007 hPa
Clouds: Few Clouds
Visibility: 6 miles , 10 km
Cloud details: Few Clouds 1402 m
2018/04/25 19:50 EGXV 251950Z AUTO 25005KT 9999 FEW046/// 09/05 Q1007
EGNX - East Midlands, United Kingdom
Distance from station: S 50mi, 80km
Updated: Wed, 25-Apr-2018 9:20pm BST
Few Clouds
Few Clouds
 Wind from WSW
Wind: WSW 17 mph , 28 km/h
Temperature: 9°C
Wind Chill: 6°C
Dew Point: 4°C
Humidity: 71%
Barometer: 1010 hPa
Clouds: Few Clouds
Visibility: 6 miles , 10 km
Cloud details: Few Clouds 1311 m
2018/04/25 20:20 EGNX 252020Z 25015KT 9999 FEW043 09/04 Q1010

Metar display script from Saratoga-Weather.org

Data updates at regular intervals.